KERV/ERV METAR and TAF weather

Enter ICAO airport designator
Station Type Date Time Source
KERV METAR 2018/12/10 01:55 UTC NOAA

KERV 100155Z AUTO 00000KT 10SM CLR 04/01 A3035 RMK AO2 T00360006


Station Type Date Time Source
KERV Decoded METAR 2018/12/10 01:55 UTC NOAA

Kerrville, Kerrville Municipal Airport/Louis Schreiner Field, TX, United States (KERV) 29-58N 099-05W
Dec 09, 2018 - 08:55 PM EST / 2018.12.10 0155 UTC
Wind: Calm:0
Visibility: 10 mile(s):0
Sky conditions: clear
Temperature: 38.5 F (3.6 C)
Dew Point: 33.1 F (0.6 C)
Relative Humidity: 80%
Pressure (altimeter): 30.35 in. Hg (1027 hPa)
ob: KERV 100155Z AUTO 00000KT 10SM CLR 04/01 A3035 RMK AO2 T00360006
cycle: 2

Station Type Date Time Source
KERV TAF UTC NOAA

Error!


Example: see airport list